sensor_id;sensor_type;location;lat;lon;timestamp;P1;durP1;ratioP1;P2;durP2;ratioP2
41323;SDS011;27073;51.128;4.220;2023-04-01T00:02:19;8.30;;;5.00;;
41323;SDS011;27073;51.128;4.220;2023-04-01T00:04:45;13.98;;;6.10;;
41323;SDS011;27073;51.128;4.220;2023-04-01T00:07:10;10.02;;;5.47;;
41323;SDS011;27073;51.128;4.220;2023-04-01T00:09:36;10.95;;;5.50;;
41323;SDS011;27073;51.128;4.220;2023-04-01T00:12:02;12.95;;;6.53;;
41323;SDS011;27073;51.128;4.220;2023-04-01T00:14:28;11.57;;;6.32;;
41323;SDS011;27073;51.128;4.220;2023-04-01T00:16:54;12.40;;;7.20;;
41323;SDS011;27073;51.128;4.220;2023-04-01T00:19:20;11.38;;;6.43;;
41323;SDS011;27073;51.128;4.220;2023-04-01T00:21:46;15.73;;;7.38;;
41323;SDS011;27073;51.128;4.220;2023-04-01T00:24:13;13.77;;;8.02;;
41323;SDS011;27073;51.128;4.220;2023-04-01T00:26:39;10.32;;;7.05;;
41323;SDS011;27073;51.128;4.220;2023-04-01T00:29:07;12.35;;;7.85;;
41323;SDS011;27073;51.128;4.220;2023-04-01T00:31:33;14.68;;;8.38;;
41323;SDS011;27073;51.128;4.220;2023-04-01T00:33:59;14.90;;;8.40;;
41323;SDS011;27073;51.128;4.220;2023-04-01T00:36:24;13.63;;;8.63;;
41323;SDS011;27073;51.128;4.220;2023-04-01T00:38:50;15.82;;;8.63;;
41323;SDS011;27073;51.128;4.220;2023-04-01T00:41:17;13.10;;;9.07;;
41323;SDS011;27073;51.128;4.220;2023-04-01T00:43:45;14.38;;;8.38;;
41323;SDS011;27073;51.128;4.220;2023-04-01T00:46:13;16.38;;;9.77;;
41323;SDS011;27073;51.128;4.220;2023-04-01T00:48:40;15.07;;;8.32;;
41323;SDS011;27073;51.128;4.220;2023-04-01T00:53:52;18.55;;;9.82;;
41323;SDS011;27073;51.128;4.220;2023-04-01T00:56:30;13.98;;;8.05;;
41323;SDS011;27073;51.128;4.220;2023-04-01T00:59:02;15.65;;;8.25;;
41323;SDS011;27073;51.128;4.220;2023-04-01T01:01:33;14.07;;;8.43;;
41323;SDS011;27073;51.128;4.220;2023-04-01T01:04:00;8.57;;;5.13;;
41323;SDS011;27073;51.128;4.220;2023-04-01T01:06:43;11.52;;;6.47;;
41323;SDS011;27073;51.128;4.220;2023-04-01T01:09:21;14.35;;;9.02;;
41323;SDS011;27073;51.128;4.220;2023-04-01T01:12:08;15.95;;;8.27;;
41323;SDS011;27073;51.128;4.220;2023-04-01T01:28:48;14.00;;;7.15;;
41323;SDS011;27073;51.128;4.220;2023-04-01T01:31:33;12.70;;;6.03;;
41323;SDS011;27073;51.128;4.220;2023-04-01T01:36:35;13.82;;;5.78;;
41323;SDS011;27073;51.128;4.220;2023-04-01T01:39:07;8.32;;;4.88;;
41323;SDS011;27073;51.128;4.220;2023-04-01T01:41:36;10.35;;;4.82;;
41323;SDS011;27073;51.128;4.220;2023-04-01T01:44:06;9.43;;;5.72;;
41323;SDS011;27073;51.128;4.220;2023-04-01T01:46:33;11.80;;;6.03;;
41323;SDS011;27073;51.128;4.220;2023-04-01T01:49:00;10.50;;;6.00;;
41323;SDS011;27073;51.128;4.220;2023-04-01T01:51:28;11.85;;;7.20;;
41323;SDS011;27073;51.128;4.220;2023-04-01T01:53:54;12.63;;;5.93;;
41323;SDS011;27073;51.128;4.220;2023-04-01T01:56:22;13.45;;;7.28;;
41323;SDS011;27073;51.128;4.220;2023-04-01T01:58:51;7.75;;;5.28;;
41323;SDS011;27073;51.128;4.220;2023-04-01T02:01:25;8.10;;;5.78;;
41323;SDS011;27073;51.128;4.220;2023-04-01T02:03:57;8.27;;;5.57;;
41323;SDS011;27073;51.128;4.220;2023-04-01T02:06:26;15.10;;;8.25;;
41323;SDS011;27073;51.128;4.220;2023-04-01T02:08:56;13.15;;;7.95;;
41323;SDS011;27073;51.128;4.220;2023-04-01T02:11:26;10.77;;;7.60;;
41323;SDS011;27073;51.128;4.220;2023-04-01T02:14:17;11.82;;;6.22;;
41323;SDS011;27073;51.128;4.220;2023-04-01T02:19:52;8.90;;;6.40;;
41323;SDS011;27073;51.128;4.220;2023-04-01T02:22:28;8.52;;;5.82;;
41323;SDS011;27073;51.128;4.220;2023-04-01T02:25:01;6.60;;;4.55;;
41323;SDS011;27073;51.128;4.220;2023-04-01T02:27:33;7.50;;;4.53;;
41323;SDS011;27073;51.128;4.220;2023-04-01T02:29:59;7.28;;;4.80;;
41323;SDS011;27073;51.128;4.220;2023-04-01T02:32:25;10.48;;;5.07;;
41323;SDS011;27073;51.128;4.220;2023-04-01T02:34:52;6.68;;;4.90;;
41323;SDS011;27073;51.128;4.220;2023-04-01T02:37:19;12.05;;;5.18;;
41323;SDS011;27073;51.128;4.220;2023-04-01T02:39:45;6.38;;;4.65;;
41323;SDS011;27073;51.128;4.220;2023-04-01T02:42:12;7.75;;;5.43;;
41323;SDS011;27073;51.128;4.220;2023-04-01T02:44:38;8.88;;;5.93;;
41323;SDS011;27073;51.128;4.220;2023-04-01T02:47:04;9.48;;;6.00;;
41323;SDS011;27073;51.128;4.220;2023-04-01T02:49:30;6.30;;;5.38;;
41323;SDS011;27073;51.128;4.220;2023-04-01T02:51:55;9.10;;;5.63;;
41323;SDS011;27073;51.128;4.220;2023-04-01T02:54:21;7.22;;;5.88;;
41323;SDS011;27073;51.128;4.220;2023-04-01T02:56:48;11.43;;;6.43;;
41323;SDS011;27073;51.128;4.220;2023-04-01T02:59:14;9.40;;;7.38;;
41323;SDS011;27073;51.128;4.220;2023-04-01T03:01:39;10.93;;;7.07;;
41323;SDS011;27073;51.128;4.220;2023-04-01T03:04:05;11.55;;;7.45;;
41323;SDS011;27073;51.128;4.220;2023-04-01T03:06:31;11.90;;;8.43;;
41323;SDS011;27073;51.128;4.220;2023-04-01T03:08:56;14.18;;;10.20;;
41323;SDS011;27073;51.128;4.220;2023-04-01T03:11:22;15.93;;;12.75;;
41323;SDS011;27073;51.128;4.220;2023-04-01T03:13:48;15.38;;;12.90;;
41323;SDS011;27073;51.128;4.220;2023-04-01T03:16:14;14.30;;;12.02;;
41323;SDS011;27073;51.128;4.220;2023-04-01T03:18:40;13.80;;;10.60;;
41323;SDS011;27073;51.128;4.220;2023-04-01T03:21:19;12.98;;;10.52;;
41323;SDS011;27073;51.128;4.220;2023-04-01T03:23:47;13.02;;;8.48;;
41323;SDS011;27073;51.128;4.220;2023-04-01T03:26:12;12.88;;;8.27;;
41323;SDS011;27073;51.128;4.220;2023-04-01T03:28:38;9.30;;;7.05;;
41323;SDS011;27073;51.128;4.220;2023-04-01T03:31:04;11.55;;;6.22;;
41323;SDS011;27073;51.128;4.220;2023-04-01T03:33:37;12.95;;;7.22;;
41323;SDS011;27073;51.128;4.220;2023-04-01T03:36:03;10.70;;;6.88;;
41323;SDS011;27073;51.128;4.220;2023-04-01T03:38:34;12.13;;;7.55;;
41323;SDS011;27073;51.128;4.220;2023-04-01T03:41:00;13.60;;;8.73;;
41323;SDS011;27073;51.128;4.220;2023-04-01T03:43:26;14.65;;;9.40;;
41323;SDS011;27073;51.128;4.220;2023-04-01T03:45:52;18.30;;;10.80;;
41323;SDS011;27073;51.128;4.220;2023-04-01T03:48:20;18.77;;;10.73;;
41323;SDS011;27073;51.128;4.220;2023-04-01T03:50:46;15.10;;;8.95;;
41323;SDS011;27073;51.128;4.220;2023-04-01T03:53:12;14.27;;;8.85;;
41323;SDS011;27073;51.128;4.220;2023-04-01T03:55:41;16.25;;;9.10;;
41323;SDS011;27073;51.128;4.220;2023-04-01T03:58:07;11.88;;;6.75;;
41323;SDS011;27073;51.128;4.220;2023-04-01T04:00:34;10.02;;;6.22;;
41323;SDS011;27073;51.128;4.220;2023-04-01T04:03:01;10.13;;;7.63;;
41323;SDS011;27073;51.128;4.220;2023-04-01T04:05:30;10.55;;;8.00;;
41323;SDS011;27073;51.128;4.220;2023-04-01T04:07:56;12.15;;;7.90;;
41323;SDS011;27073;51.128;4.220;2023-04-01T04:10:22;12.98;;;7.53;;
41323;SDS011;27073;51.128;4.220;2023-04-01T04:12:50;9.60;;;8.02;;
41323;SDS011;27073;51.128;4.220;2023-04-01T04:15:17;12.52;;;8.15;;
41323;SDS011;27073;51.128;4.220;2023-04-01T04:17:44;11.00;;;7.10;;
41323;SDS011;27073;51.128;4.220;2023-04-01T04:20:11;9.50;;;7.60;;
41323;SDS011;27073;51.128;4.220;2023-04-01T04:22:37;12.60;;;8.23;;
41323;SDS011;27073;51.128;4.220;2023-04-01T04:25:06;12.10;;;7.63;;
41323;SDS011;27073;51.128;4.220;2023-04-01T04:27:33;9.45;;;7.47;;
41323;SDS011;27073;51.128;4.220;2023-04-01T04:30:05;10.10;;;9.10;;
41323;SDS011;27073;51.128;4.220;2023-04-01T04:32:33;10.25;;;7.35;;
41323;SDS011;27073;51.128;4.220;2023-04-01T04:34:59;8.07;;;6.22;;
41323;SDS011;27073;51.128;4.220;2023-04-01T04:37:25;9.20;;;6.63;;
41323;SDS011;27073;51.128;4.220;2023-04-01T04:39:52;9.65;;;7.20;;
41323;SDS011;27073;51.128;4.220;2023-04-01T04:42:18;10.13;;;6.38;;
41323;SDS011;27073;51.128;4.220;2023-04-01T04:44:44;8.20;;;6.38;;
41323;SDS011;27073;51.128;4.220;2023-04-01T04:47:10;9.55;;;5.00;;
41323;SDS011;27073;51.128;4.220;2023-04-01T04:49:36;7.63;;;6.82;;
41323;SDS011;27073;51.128;4.220;2023-04-01T04:52:06;10.65;;;7.43;;
41323;SDS011;27073;51.128;4.220;2023-04-01T04:54:32;8.02;;;7.22;;
41323;SDS011;27073;51.128;4.220;2023-04-01T04:57:00;7.68;;;6.88;;
41323;SDS011;27073;51.128;4.220;2023-04-01T04:59:30;9.23;;;7.38;;
41323;SDS011;27073;51.128;4.220;2023-04-01T05:02:02;10.73;;;6.65;;
41323;SDS011;27073;51.128;4.220;2023-04-01T05:04:28;9.60;;;7.45;;
41323;SDS011;27073;51.128;4.220;2023-04-01T05:06:54;10.88;;;8.60;;
41323;SDS011;27073;51.128;4.220;2023-04-01T05:09:20;12.80;;;8.70;;
41323;SDS011;27073;51.128;4.220;2023-04-01T05:11:46;9.10;;;8.20;;
41323;SDS011;27073;51.128;4.220;2023-04-01T05:14:13;13.18;;;8.30;;
41323;SDS011;27073;51.128;4.220;2023-04-01T05:16:40;13.30;;;9.45;;
41323;SDS011;27073;51.128;4.220;2023-04-01T05:19:06;11.15;;;8.20;;
41323;SDS011;27073;51.128;4.220;2023-04-01T05:21:32;7.75;;;6.60;;
41323;SDS011;27073;51.128;4.220;2023-04-01T05:23:58;10.38;;;6.13;;
41323;SDS011;27073;51.128;4.220;2023-04-01T05:26:24;7.70;;;5.03;;
41323;SDS011;27073;51.128;4.220;2023-04-01T05:28:50;7.57;;;5.10;;
41323;SDS011;27073;51.128;4.220;2023-04-01T05:31:16;6.63;;;5.03;;
41323;SDS011;27073;51.128;4.220;2023-04-01T05:33:45;8.77;;;4.93;;
41323;SDS011;27073;51.128;4.220;2023-04-01T05:36:14;7.43;;;4.63;;
41323;SDS011;27073;51.128;4.220;2023-04-01T05:38:41;5.60;;;3.88;;
41323;SDS011;27073;51.128;4.220;2023-04-01T05:41:10;5.50;;;3.65;;
41323;SDS011;27073;51.128;4.220;2023-04-01T05:43:40;6.65;;;3.70;;
41323;SDS011;27073;51.128;4.220;2023-04-01T05:46:25;4.00;;;3.25;;
41323;SDS011;27073;51.128;4.220;2023-04-01T05:48:58;4.32;;;2.75;;
41323;SDS011;27073;51.128;4.220;2023-04-01T05:51:24;8.00;;;3.75;;
41323;SDS011;27073;51.128;4.220;2023-04-01T05:53:50;3.90;;;2.83;;
41323;SDS011;27073;51.128;4.220;2023-04-01T05:56:17;3.50;;;2.33;;
41323;SDS011;27073;51.128;4.220;2023-04-01T05:58:49;2.95;;;2.42;;
41323;SDS011;27073;51.128;4.220;2023-04-01T06:01:17;2.65;;;1.98;;
41323;SDS011;27073;51.128;4.220;2023-04-01T06:03:44;3.38;;;2.67;;
41323;SDS011;27073;51.128;4.220;2023-04-01T06:06:14;4.43;;;2.05;;
41323;SDS011;27073;51.128;4.220;2023-04-01T06:08:53;4.68;;;2.50;;
41323;SDS011;27073;51.128;4.220;2023-04-01T06:11:44;3.53;;;2.45;;
41323;SDS011;27073;51.128;4.220;2023-04-01T06:17:11;2.67;;;1.75;;
41323;SDS011;27073;51.128;4.220;2023-04-01T06:19:51;4.88;;;2.50;;
41323;SDS011;27073;51.128;4.220;2023-04-01T06:26:12;3.33;;;2.40;;
41323;SDS011;27073;51.128;4.220;2023-04-01T06:32:14;3.90;;;2.38;;
41323;SDS011;27073;51.128;4.220;2023-04-01T06:34:52;1.73;;;1.40;;
41323;SDS011;27073;51.128;4.220;2023-04-01T06:38:05;3.20;;;1.90;;
41323;SDS011;27073;51.128;4.220;2023-04-01T06:43:34;3.80;;;1.92;;
41323;SDS011;27073;51.128;4.220;2023-04-01T06:46:47;5.07;;;2.20;;
41323;SDS011;27073;51.128;4.220;2023-04-01T06:58:37;5.93;;;2.67;;
41323;SDS011;27073;51.128;4.220;2023-04-01T07:01:20;4.00;;;2.00;;
41323;SDS011;27073;51.128;4.220;2023-04-01T07:03:53;3.90;;;1.90;;
41323;SDS011;27073;51.128;4.220;2023-04-01T07:06:54;3.97;;;2.20;;
41323;SDS011;27073;51.128;4.220;2023-04-01T07:09:41;4.20;;;2.08;;
41323;SDS011;27073;51.128;4.220;2023-04-01T07:12:44;3.05;;;2.13;;
41323;SDS011;27073;51.128;4.220;2023-04-01T07:18:22;3.05;;;2.03;;
41323;SDS011;27073;51.128;4.220;2023-04-01T07:20:56;2.85;;;2.13;;
41323;SDS011;27073;51.128;4.220;2023-04-01T07:23:23;3.78;;;2.50;;
41323;SDS011;27073;51.128;4.220;2023-04-01T07:26:19;5.10;;;2.47;;
41323;SDS011;27073;51.128;4.220;2023-04-01T07:29:05;4.40;;;2.40;;
41323;SDS011;27073;51.128;4.220;2023-04-01T07:34:28;4.18;;;2.58;;
41323;SDS011;27073;51.128;4.220;2023-04-01T07:37:31;3.90;;;2.70;;
41323;SDS011;27073;51.128;4.220;2023-04-01T07:40:39;4.18;;;2.53;;
41323;SDS011;27073;51.128;4.220;2023-04-01T07:46:26;3.85;;;2.65;;
41323;SDS011;27073;51.128;4.220;2023-04-01T07:51:50;4.03;;;2.85;;
41323;SDS011;27073;51.128;4.220;2023-04-01T08:00:00;4.97;;;2.90;;
41323;SDS011;27073;51.128;4.220;2023-04-01T08:03:08;5.43;;;2.60;;
41323;SDS011;27073;51.128;4.220;2023-04-01T08:17:20;6.03;;;2.63;;
41323;SDS011;27073;51.128;4.220;2023-04-01T08:23:05;4.45;;;1.80;;
41323;SDS011;27073;51.128;4.220;2023-04-01T08:25:41;2.63;;;1.70;;
41323;SDS011;27073;51.128;4.220;2023-04-01T08:28:30;1.77;;;1.52;;
41323;SDS011;27073;51.128;4.220;2023-04-01T08:31:05;2.97;;;1.58;;
41323;SDS011;27073;51.128;4.220;2023-04-01T08:33:43;2.20;;;1.20;;
41323;SDS011;27073;51.128;4.220;2023-04-01T08:36:20;3.08;;;1.75;;
41323;SDS011;27073;51.128;4.220;2023-04-01T08:39:16;4.15;;;1.65;;
41323;SDS011;27073;51.128;4.220;2023-04-01T08:48:04;3.25;;;1.67;;
41323;SDS011;27073;51.128;4.220;2023-04-01T08:53:52;3.17;;;1.40;;
41323;SDS011;27073;51.128;4.220;2023-04-01T08:59:27;2.78;;;0.75;;
41323;SDS011;27073;51.128;4.220;2023-04-01T09:02:49;1.67;;;0.70;;
41323;SDS011;27073;51.128;4.220;2023-04-01T09:08:44;2.50;;;1.20;;
41323;SDS011;27073;51.128;4.220;2023-04-01T09:22:05;1.50;;;1.02;;
41323;SDS011;27073;51.128;4.220;2023-04-01T09:27:28;2.92;;;0.93;;
41323;SDS011;27073;51.128;4.220;2023-04-01T09:32:46;2.75;;;1.25;;
41323;SDS011;27073;51.128;4.220;2023-04-01T09:35:39;3.17;;;1.20;;
41323;SDS011;27073;51.128;4.220;2023-04-01T09:38:20;4.80;;;1.30;;
41323;SDS011;27073;51.128;4.220;2023-04-01T10:12:50;4.32;;;1.67;;
41323;SDS011;27073;51.128;4.220;2023-04-01T10:15:51;2.65;;;1.50;;
41323;SDS011;27073;51.128;4.220;2023-04-01T10:47:48;4.72;;;1.58;;
41323;SDS011;27073;51.128;4.220;2023-04-01T10:50:25;4.53;;;1.50;;
41323;SDS011;27073;51.128;4.220;2023-04-01T10:56:42;3.67;;;1.90;;
41323;SDS011;27073;51.128;4.220;2023-04-01T11:37:32;4.05;;;1.70;;
41323;SDS011;27073;51.128;4.220;2023-04-01T11:52:20;2.42;;;0.80;;
41323;SDS011;27073;51.128;4.220;2023-04-01T11:57:47;4.90;;;0.68;;
41323;SDS011;27073;51.128;4.220;2023-04-01T12:00:20;2.65;;;0.93;;
41323;SDS011;27073;51.128;4.220;2023-04-01T12:08:36;1.05;;;0.70;;
41323;SDS011;27073;51.128;4.220;2023-04-01T12:11:15;2.20;;;0.90;;
41323;SDS011;27073;51.128;4.220;2023-04-01T12:13:59;2.60;;;1.00;;
41323;SDS011;27073;51.128;4.220;2023-04-01T12:16:58;1.33;;;0.70;;
41323;SDS011;27073;51.128;4.220;2023-04-01T12:19:38;2.50;;;0.80;;
41323;SDS011;27073;51.128;4.220;2023-04-01T12:27:47;2.28;;;1.02;;
41323;SDS011;27073;51.128;4.220;2023-04-01T12:30:26;0.70;;;0.50;;
41323;SDS011;27073;51.128;4.220;2023-04-01T12:41:32;1.20;;;0.60;;
41323;SDS011;27073;51.128;4.220;2023-04-01T12:53:07;2.00;;;0.90;;
41323;SDS011;27073;51.128;4.220;2023-04-01T12:55:47;1.50;;;0.82;;
41323;SDS011;27073;51.128;4.220;2023-04-01T13:02:18;2.33;;;1.00;;
41323;SDS011;27073;51.128;4.220;2023-04-01T13:12:43;4.10;;;1.20;;
41323;SDS011;27073;51.128;4.220;2023-04-01T13:20:43;1.98;;;0.93;;
41323;SDS011;27073;51.128;4.220;2023-04-01T13:23:32;2.73;;;0.87;;
41323;SDS011;27073;51.128;4.220;2023-04-01T13:26:16;1.75;;;0.65;;
41323;SDS011;27073;51.128;4.220;2023-04-01T13:29:02;2.85;;;0.85;;
41323;SDS011;27073;51.128;4.220;2023-04-01T13:31:47;1.90;;;0.90;;
41323;SDS011;27073;51.128;4.220;2023-04-01T13:34:25;3.92;;;1.10;;
41323;SDS011;27073;51.128;4.220;2023-04-01T13:42:13;3.25;;;0.90;;
41323;SDS011;27073;51.128;4.220;2023-04-01T13:52:31;2.72;;;0.60;;
41323;SDS011;27073;51.128;4.220;2023-04-01T13:58:04;1.90;;;0.75;;
41323;SDS011;27073;51.128;4.220;2023-04-01T14:00:43;1.23;;;0.50;;
41323;SDS011;27073;51.128;4.220;2023-04-01T14:03:41;5.13;;;0.80;;
41323;SDS011;27073;51.128;4.220;2023-04-01T14:14:59;2.53;;;0.90;;
41323;SDS011;27073;51.128;4.220;2023-04-01T14:26:51;3.60;;;0.90;;
41323;SDS011;27073;51.128;4.220;2023-04-01T14:29:44;3.72;;;0.80;;
41323;SDS011;27073;51.128;4.220;2023-04-01T14:32:27;2.55;;;0.60;;
41323;SDS011;27073;51.128;4.220;2023-04-01T14:49:22;4.15;;;1.10;;
41323;SDS011;27073;51.128;4.220;2023-04-01T14:51:57;3.55;;;1.10;;
41323;SDS011;27073;51.128;4.220;2023-04-01T14:54:39;2.03;;;0.95;;
41323;SDS011;27073;51.128;4.220;2023-04-01T14:57:11;2.90;;;0.90;;
41323;SDS011;27073;51.128;4.220;2023-04-01T14:59:41;3.35;;;0.75;;
41323;SDS011;27073;51.128;4.220;2023-04-01T15:13:03;1.70;;;0.80;;
41323;SDS011;27073;51.128;4.220;2023-04-01T15:37:36;6.32;;;1.30;;
41323;SDS011;27073;51.128;4.220;2023-04-01T15:43:15;2.13;;;0.88;;
41323;SDS011;27073;51.128;4.220;2023-04-01T16:00:25;4.97;;;1.45;;
41323;SDS011;27073;51.128;4.220;2023-04-01T16:10:55;3.97;;;1.55;;
41323;SDS011;27073;51.128;4.220;2023-04-01T16:21:51;5.43;;;1.25;;
41323;SDS011;27073;51.128;4.220;2023-04-01T16:43:59;3.47;;;2.20;;
41323;SDS011;27073;51.128;4.220;2023-04-01T16:49:27;4.05;;;3.05;;
41323;SDS011;27073;51.128;4.220;2023-04-01T16:54:39;8.63;;;3.35;;
41323;SDS011;27073;51.128;4.220;2023-04-01T16:57:31;8.38;;;3.55;;
41323;SDS011;27073;51.128;4.220;2023-04-01T17:02:45;5.63;;;3.88;;
41323;SDS011;27073;51.128;4.220;2023-04-01T17:05:37;5.88;;;4.05;;
41323;SDS011;27073;51.128;4.220;2023-04-01T17:11:31;8.57;;;6.07;;
41323;SDS011;27073;51.128;4.220;2023-04-01T17:14:29;8.48;;;5.30;;
41323;SDS011;27073;51.128;4.220;2023-04-01T17:20:25;14.48;;;5.47;;
41323;SDS011;27073;51.128;4.220;2023-04-01T17:30:56;9.88;;;5.18;;
41323;SDS011;27073;51.128;4.220;2023-04-01T17:47:49;9.13;;;4.68;;
41323;SDS011;27073;51.128;4.220;2023-04-01T17:56:25;8.48;;;5.03;;
41323;SDS011;27073;51.128;4.220;2023-04-01T18:07:38;8.95;;;6.85;;
41323;SDS011;27073;51.128;4.220;2023-04-01T18:15:55;14.88;;;9.48;;
41323;SDS011;27073;51.128;4.220;2023-04-01T18:23:43;22.42;;;11.93;;
41323;SDS011;27073;51.128;4.220;2023-04-01T18:26:31;26.45;;;12.35;;
41323;SDS011;27073;51.128;4.220;2023-04-01T18:29:02;26.17;;;11.75;;
41323;SDS011;27073;51.128;4.220;2023-04-01T18:31:40;27.95;;;13.93;;
41323;SDS011;27073;51.128;4.220;2023-04-01T18:37:34;27.50;;;13.27;;
41323;SDS011;27073;51.128;4.220;2023-04-01T18:51:20;20.65;;;11.50;;
41323;SDS011;27073;51.128;4.220;2023-04-01T18:53:58;19.85;;;9.82;;
41323;SDS011;27073;51.128;4.220;2023-04-01T18:56:30;20.30;;;10.98;;
41323;SDS011;27073;51.128;4.220;2023-04-01T18:59:03;21.65;;;9.98;;
41323;SDS011;27073;51.128;4.220;2023-04-01T19:04:38;23.67;;;11.35;;
41323;SDS011;27073;51.128;4.220;2023-04-01T19:10:13;25.60;;;12.07;;
41323;SDS011;27073;51.128;4.220;2023-04-01T19:20:51;33.10;;;12.20;;
41323;SDS011;27073;51.128;4.220;2023-04-01T19:26:03;35.78;;;14.68;;
41323;SDS011;27073;51.128;4.220;2023-04-01T19:28:40;30.67;;;14.35;;
41323;SDS011;27073;51.128;4.220;2023-04-01T19:34:20;32.30;;;14.23;;
41323;SDS011;27073;51.128;4.220;2023-04-01T19:36:55;26.67;;;14.93;;
41323;SDS011;27073;51.128;4.220;2023-04-01T19:42:38;31.33;;;13.85;;
41323;SDS011;27073;51.128;4.220;2023-04-01T19:45:29;31.85;;;14.63;;
41323;SDS011;27073;51.128;4.220;2023-04-01T19:50:40;25.73;;;13.32;;
41323;SDS011;27073;51.128;4.220;2023-04-01T19:53:25;25.00;;;13.15;;
41323;SDS011;27073;51.128;4.220;2023-04-01T19:56:07;27.23;;;14.38;;
41323;SDS011;27073;51.128;4.220;2023-04-01T19:58:59;25.45;;;13.77;;
41323;SDS011;27073;51.128;4.220;2023-04-01T20:07:03;33.17;;;17.77;;
41323;SDS011;27073;51.128;4.220;2023-04-01T20:09:53;37.17;;;18.40;;
41323;SDS011;27073;51.128;4.220;2023-04-01T20:12:49;37.97;;;18.60;;
41323;SDS011;27073;51.128;4.220;2023-04-01T20:15:31;34.63;;;18.60;;
41323;SDS011;27073;51.128;4.220;2023-04-01T20:17:59;37.33;;;18.52;;
41323;SDS011;27073;51.128;4.220;2023-04-01T20:20:29;33.35;;;19.90;;
41323;SDS011;27073;51.128;4.220;2023-04-01T20:23:02;38.55;;;19.58;;
41323;SDS011;27073;51.128;4.220;2023-04-01T20:28:28;39.42;;;19.23;;
41323;SDS011;27073;51.128;4.220;2023-04-01T20:31:29;33.92;;;18.77;;
41323;SDS011;27073;51.128;4.220;2023-04-01T20:53:04;34.63;;;23.17;;
41323;SDS011;27073;51.128;4.220;2023-04-01T21:06:13;25.63;;;20.42;;
41323;SDS011;27073;51.128;4.220;2023-04-01T21:17:45;20.30;;;17.85;;
41323;SDS011;27073;51.128;4.220;2023-04-01T21:31:28;17.35;;;14.70;;
41323;SDS011;27073;51.128;4.220;2023-04-01T22:07:34;21.05;;;18.98;;
41323;SDS011;27073;51.128;4.220;2023-04-01T22:10:05;20.92;;;18.85;;
41323;SDS011;27073;51.128;4.220;2023-04-01T22:12:38;20.45;;;18.55;;
41323;SDS011;27073;51.128;4.220;2023-04-01T22:15:15;20.58;;;18.58;;
41323;SDS011;27073;51.128;4.220;2023-04-01T22:28:55;19.92;;;17.92;;
41323;SDS011;27073;51.128;4.220;2023-04-01T22:31:49;18.05;;;16.25;;
41323;SDS011;27073;51.128;4.220;2023-04-01T22:40:22;16.02;;;14.52;;
41323;SDS011;27073;51.128;4.220;2023-04-01T22:43:04;15.10;;;13.75;;
41323;SDS011;27073;51.128;4.220;2023-04-01T22:48:32;14.82;;;13.50;;
41323;SDS011;27073;51.128;4.220;2023-04-01T22:51:15;15.77;;;14.32;;
41323;SDS011;27073;51.128;4.220;2023-04-01T22:56:37;19.00;;;17.20;;
41323;SDS011;27073;51.128;4.220;2023-04-01T22:59:19;21.70;;;19.70;;
41323;SDS011;27073;51.128;4.220;2023-04-01T23:02:13;27.63;;;24.92;;
41323;SDS011;27073;51.128;4.220;2023-04-01T23:04:48;25.45;;;23.05;;
41323;SDS011;27073;51.128;4.220;2023-04-01T23:10:56;27.83;;;25.23;;
41323;SDS011;27073;51.128;4.220;2023-04-01T23:13:02;25.80;;;23.27;;
41323;SDS011;27073;51.128;4.220;2023-04-01T23:15:30;24.73;;;22.27;;
41323;SDS011;27073;51.128;4.220;2023-04-01T23:20:59;21.35;;;19.42;;
41323;SDS011;27073;51.128;4.220;2023-04-01T23:31:33;18.30;;;16.50;;
41323;SDS011;27073;51.128;4.220;2023-04-01T23:36:39;20.42;;;18.42;;
41323;SDS011;27073;51.128;4.220;2023-04-01T23:39:20;19.45;;;17.55;;
41323;SDS011;27073;51.128;4.220;2023-04-01T23:41:50;19.23;;;17.42;;
41323;SDS011;27073;51.128;4.220;2023-04-01T23:44:19;19.75;;;17.65;;
41323;SDS011;27073;51.128;4.220;2023-04-01T23:46:46;20.23;;;18.35;;
41323;SDS011;27073;51.128;4.220;2023-04-01T23:49:16;19.92;;;18.02;;
41323;SDS011;27073;51.128;4.220;2023-04-01T23:51:51;20.75;;;18.65;;
41323;SDS011;27073;51.128;4.220;2023-04-01T23:54:24;19.27;;;17.27;;
41323;SDS011;27073;51.128;4.220;2023-04-01T23:56:59;19.27;;;17.30;;
41323;SDS011;27073;51.128;4.220;2023-04-01T23:59:35;19.40;;;17.35;;
